Aviation Digital Data Service (ADDS)

Output produced by METARs form (0940 UTC 28 September 2021)
found at http://www.aviationweather.gov/metar/data/
 
METAR text: KBJC 280935Z AUTO 00000KT 10SM CLR 17/01 A2995 RMK AO2
Conditions at: KBJC (BROOMFIELD/JEFFC, CO, US) observed 0935 UTC 28 September 2021
Temperature: 17.0°C (63°F)
Dewpoint: 1.0°C (34°F) [RH = 34%]
Pressure (altimeter): 29.95 inches Hg (1014.3 mb)
Winds: calm
Visibility: 10 or more miles (16+ km)
Ceiling: at least 12,000 feet AGL
Clouds: sky clear below 12,000 feet AGL
Weather: automated observation with no human augmentation;
there may or may not be significant weather present at this time

METAR text: KBJC 280915Z AUTO 00000KT 10SM CLR 17/02 A2995 RMK AO2
Conditions at: KBJC (BROOMFIELD/JEFFC, CO, US) observed 0915 UTC 28 September 2021
Temperature: 17.0°C (63°F)
Dewpoint: 2.0°C (36°F) [RH = 36%]
Pressure (altimeter): 29.95 inches Hg (1014.3 mb)
Winds: calm
Visibility: 10 or more miles (16+ km)
Ceiling: at least 12,000 feet AGL
Clouds: sky clear below 12,000 feet AGL
Weather: automated observation with no human augmentation;
there may or may not be significant weather present at this time

METAR text: KBJC 280855Z AUTO 28004KT 10SM CLR 17/02 A2995 RMK AO2
Conditions at: KBJC (BROOMFIELD/JEFFC, CO, US) observed 0855 UTC 28 September 2021
Temperature: 17.0°C (63°F)
Dewpoint: 2.0°C (36°F) [RH = 36%]
Pressure (altimeter): 29.95 inches Hg (1014.3 mb)
Winds: from the W (280 degrees) at 5 MPH (4 knots; 2.1 m/s)
Visibility: 10 or more miles (16+ km)
Ceiling: at least 12,000 feet AGL
Clouds: sky clear below 12,000 feet AGL
Weather: automated observation with no human augmentation;
there may or may not be significant weather present at this time

Forecast for: KBJC (BROOMFIELD/JEFFC, CO, US)
Text: KBJC 280522Z 2806/2906 25005KT P6SM SCT140 BKN200
Forecast period: 0600 to 1100 UTC 28 September 2021
Forecast type: FROM: standard forecast or significant change
Winds: from the WSW (250 degrees) at 6 MPH (5 knots; 2.6 m/s)
Visibility: 6 or more miles (10+ km)
Ceiling: 20000 feet AGL
Clouds: scattered clouds at 14000 feet AGL
broken clouds at 20000 feet AGL
Weather: no significant weather forecast for this period
Text: FM281100 VRB05KT P6SM BKN120 BKN200
Forecast period: 1100 to 1700 UTC 28 September 2021
Forecast type: FROM: standard forecast or significant change
Winds: variable direction winds at 6 MPH (5 knots; 2.6 m/s)
Visibility: 6 or more miles (10+ km)
Ceiling: 12000 feet AGL
Clouds: broken clouds at 12000 feet AGL
broken clouds at 20000 feet AGL
Weather: no significant weather forecast for this period
Text: FM281700 15008KT P6SM SCT120 BKN200
Forecast period: 1700 UTC 28 September 2021 to 0100 UTC 29 September 2021
Forecast type: FROM: standard forecast or significant change
Winds: from the SSE (150 degrees) at 9 MPH (8 knots; 4.1 m/s)
Visibility: 6 or more miles (10+ km)
Ceiling: 20000 feet AGL
Clouds: scattered clouds at 12000 feet AGL
broken clouds at 20000 feet AGL
Weather: no significant weather forecast for this period
Text: FM290100 25011KT P6SM BKN120 BKN200
Forecast period: 0100 to 0600 UTC 29 September 2021
Forecast type: FROM: standard forecast or significant change
Winds: from the WSW (250 degrees) at 13 MPH (11 knots; 5.7 m/s)
Visibility: 6 or more miles (10+ km)
Ceiling: 12000 feet AGL
Clouds: broken clouds at 12000 feet AGL
broken clouds at 20000 feet AGL
Weather: no significant weather forecast for this period